sensor_id;sensor_type;location;lat;lon;timestamp;temperature;humidity
6486;DHT22;3276;48.490;9.222;2022-12-16T00:02:18;-1.00;34.20
6486;DHT22;3276;48.490;9.222;2022-12-16T00:04:44;-1.00;33.10
6486;DHT22;3276;48.490;9.222;2022-12-16T00:07:09;-1.00;33.10
6486;DHT22;3276;48.490;9.222;2022-12-16T00:09:35;-1.00;33.10
6486;DHT22;3276;48.490;9.222;2022-12-16T00:12:00;-1.00;32.90
6486;DHT22;3276;48.490;9.222;2022-12-16T00:14:26;-1.00;33.10
6486;DHT22;3276;48.490;9.222;2022-12-16T00:16:53;-1.00;33.10
6486;DHT22;3276;48.490;9.222;2022-12-16T00:19:18;-1.00;33.10
6486;DHT22;3276;48.490;9.222;2022-12-16T00:21:44;-1.00;33.10
6486;DHT22;3276;48.490;9.222;2022-12-16T00:24:10;-1.10;33.00
6486;DHT22;3276;48.490;9.222;2022-12-16T00:26:35;-1.00;33.10
6486;DHT22;3276;48.490;9.222;2022-12-16T00:29:01;-0.90;33.20
6486;DHT22;3276;48.490;9.222;2022-12-16T00:31:29;-1.00;32.40
6486;DHT22;3276;48.490;9.222;2022-12-16T00:33:56;-1.10;32.20
6486;DHT22;3276;48.490;9.222;2022-12-16T00:36:22;-1.10;32.20
6486;DHT22;3276;48.490;9.222;2022-12-16T00:38:47;-1.20;32.30
6486;DHT22;3276;48.490;9.222;2022-12-16T00:41:13;-1.20;33.00
6486;DHT22;3276;48.490;9.222;2022-12-16T00:43:38;-1.30;32.90
6486;DHT22;3276;48.490;9.222;2022-12-16T00:46:04;-1.30;32.90
6486;DHT22;3276;48.490;9.222;2022-12-16T00:48:30;-1.40;33.30
6486;DHT22;3276;48.490;9.222;2022-12-16T00:50:55;-1.30;34.30
6486;DHT22;3276;48.490;9.222;2022-12-16T00:53:22;-1.30;34.30
6486;DHT22;3276;48.490;9.222;2022-12-16T00:55:48;-1.30;33.70
6486;DHT22;3276;48.490;9.222;2022-12-16T00:58:14;-1.40;34.00
6486;DHT22;3276;48.490;9.222;2022-12-16T01:00:39;-1.40;34.60
6486;DHT22;3276;48.490;9.222;2022-12-16T01:03:05;-1.50;34.20
6486;DHT22;3276;48.490;9.222;2022-12-16T01:05:31;-1.50;34.80
6486;DHT22;3276;48.490;9.222;2022-12-16T01:07:56;-1.50;35.20
6486;DHT22;3276;48.490;9.222;2022-12-16T01:10:23;-1.50;35.40
6486;DHT22;3276;48.490;9.222;2022-12-16T01:12:49;-1.50;35.70
6486;DHT22;3276;48.490;9.222;2022-12-16T01:15:15;-1.30;35.30
6486;DHT22;3276;48.490;9.222;2022-12-16T01:17:41;-1.30;34.30
6486;DHT22;3276;48.490;9.222;2022-12-16T01:20:07;-1.20;33.40
6486;DHT22;3276;48.490;9.222;2022-12-16T01:22:34;-1.30;32.90
6486;DHT22;3276;48.490;9.222;2022-12-16T01:25:00;-1.30;33.30
6486;DHT22;3276;48.490;9.222;2022-12-16T01:27:26;-1.30;34.00
6486;DHT22;3276;48.490;9.222;2022-12-16T01:29:52;-1.30;33.70
6486;DHT22;3276;48.490;9.222;2022-12-16T01:32:17;-1.20;34.50
6486;DHT22;3276;48.490;9.222;2022-12-16T01:34:47;-1.10;33.00
6486;DHT22;3276;48.490;9.222;2022-12-16T01:37:13;-1.10;33.00
6486;DHT22;3276;48.490;9.222;2022-12-16T01:39:39;-1.20;33.00
6486;DHT22;3276;48.490;9.222;2022-12-16T01:42:11;-1.30;32.90
6486;DHT22;3276;48.490;9.222;2022-12-16T01:44:36;-1.30;32.90
6486;DHT22;3276;48.490;9.222;2022-12-16T01:47:04;-1.30;32.90
6486;DHT22;3276;48.490;9.222;2022-12-16T01:49:37;-1.20;33.00
6486;DHT22;3276;48.490;9.222;2022-12-16T01:52:08;-1.30;33.10
6486;DHT22;3276;48.490;9.222;2022-12-16T01:54:41;-1.20;33.00
6486;DHT22;3276;48.490;9.222;2022-12-16T01:57:21;-1.10;33.70
6486;DHT22;3276;48.490;9.222;2022-12-16T01:59:50;-1.10;33.00
6486;DHT22;3276;48.490;9.222;2022-12-16T02:02:19;-1.10;32.20
6486;DHT22;3276;48.490;9.222;2022-12-16T02:04:44;-1.20;31.80
6486;DHT22;3276;48.490;9.222;2022-12-16T02:07:28;-1.30;31.90
6486;DHT22;3276;48.490;9.222;2022-12-16T02:09:55;-1.20;33.00
6486;DHT22;3276;48.490;9.222;2022-12-16T02:15:05;-1.30;32.60
6486;DHT22;3276;48.490;9.222;2022-12-16T02:34:48;-1.50;32.70
6486;DHT22;3276;48.490;9.222;2022-12-16T02:40:06;-1.60;33.30
6486;DHT22;3276;48.490;9.222;2022-12-16T02:42:36;-1.60;33.20
6486;DHT22;3276;48.490;9.222;2022-12-16T02:45:12;-1.60;33.70
6486;DHT22;3276;48.490;9.222;2022-12-16T02:47:39;-1.60;33.30
6486;DHT22;3276;48.490;9.222;2022-12-16T02:50:17;-1.60;34.10
6486;DHT22;3276;48.490;9.222;2022-12-16T02:52:43;-1.70;33.60
6486;DHT22;3276;48.490;9.222;2022-12-16T02:55:09;-1.60;34.70
6486;DHT22;3276;48.490;9.222;2022-12-16T03:00:13;-1.70;34.30
6486;DHT22;3276;48.490;9.222;2022-12-16T03:02:57;-1.60;34.30
6486;DHT22;3276;48.490;9.222;2022-12-16T03:05:29;-1.70;34.90
6486;DHT22;3276;48.490;9.222;2022-12-16T03:07:58;-1.60;35.40
6486;DHT22;3276;48.490;9.222;2022-12-16T03:10:28;-1.60;34.30
6486;DHT22;3276;48.490;9.222;2022-12-16T03:12:57;-1.60;35.20
6486;DHT22;3276;48.490;9.222;2022-12-16T03:15:27;-1.60;35.40
6486;DHT22;3276;48.490;9.222;2022-12-16T03:17:54;-1.50;34.70
6486;DHT22;3276;48.490;9.222;2022-12-16T03:20:26;-1.50;34.40
6486;DHT22;3276;48.490;9.222;2022-12-16T03:22:54;-1.50;34.20
6486;DHT22;3276;48.490;9.222;2022-12-16T03:25:22;-1.50;34.30
6486;DHT22;3276;48.490;9.222;2022-12-16T03:27:56;-1.50;33.80
6486;DHT22;3276;48.490;9.222;2022-12-16T03:30:44;-1.50;33.80
6486;DHT22;3276;48.490;9.222;2022-12-16T03:33:25;-1.60;35.20
6486;DHT22;3276;48.490;9.222;2022-12-16T03:36:03;-1.40;35.80
6486;DHT22;3276;48.490;9.222;2022-12-16T03:38:32;-1.40;35.10
6486;DHT22;3276;48.490;9.222;2022-12-16T03:40:58;-1.40;34.20
6486;DHT22;3276;48.490;9.222;2022-12-16T03:43:26;-1.40;34.50
6486;DHT22;3276;48.490;9.222;2022-12-16T03:45:54;-1.30;34.60
6486;DHT22;3276;48.490;9.222;2022-12-16T03:48:23;-1.20;33.00
6486;DHT22;3276;48.490;9.222;2022-12-16T03:50:49;-1.20;33.70
6486;DHT22;3276;48.490;9.222;2022-12-16T03:53:15;-1.20;33.00
6486;DHT22;3276;48.490;9.222;2022-12-16T03:55:41;-1.20;33.00
6486;DHT22;3276;48.490;9.222;2022-12-16T03:58:06;-1.10;33.00
6486;DHT22;3276;48.490;9.222;2022-12-16T04:00:32;-1.30;32.50
6486;DHT22;3276;48.490;9.222;2022-12-16T04:02:57;-1.30;32.90
6486;DHT22;3276;48.490;9.222;2022-12-16T04:05:23;-1.30;32.90
6486;DHT22;3276;48.490;9.222;2022-12-16T04:07:49;-1.30;32.90
6486;DHT22;3276;48.490;9.222;2022-12-16T04:10:14;-1.40;32.80
6486;DHT22;3276;48.490;9.222;2022-12-16T04:12:40;-1.30;32.90
6486;DHT22;3276;48.490;9.222;2022-12-16T04:15:24;-1.30;32.90
6486;DHT22;3276;48.490;9.222;2022-12-16T04:18:14;-1.30;32.80
6486;DHT22;3276;48.490;9.222;2022-12-16T04:20:59;-1.20;33.00
6486;DHT22;3276;48.490;9.222;2022-12-16T04:23:53;-1.10;32.80
6486;DHT22;3276;48.490;9.222;2022-12-16T04:26:37;-1.10;32.40
6486;DHT22;3276;48.490;9.222;2022-12-16T04:29:22;-1.10;32.10
6486;DHT22;3276;48.490;9.222;2022-12-16T04:31:48;-1.10;31.90
6486;DHT22;3276;48.490;9.222;2022-12-16T04:34:14;-1.10;31.40
6486;DHT22;3276;48.490;9.222;2022-12-16T04:36:55;-1.20;31.60
6486;DHT22;3276;48.490;9.222;2022-12-16T04:39:39;-1.30;32.90
6486;DHT22;3276;48.490;9.222;2022-12-16T04:42:24;-1.40;32.80
6486;DHT22;3276;48.490;9.222;2022-12-16T04:45:08;-1.40;32.90
6486;DHT22;3276;48.490;9.222;2022-12-16T04:47:53;-1.40;32.40
6486;DHT22;3276;48.490;9.222;2022-12-16T04:50:37;-1.50;32.70
6486;DHT22;3276;48.490;9.222;2022-12-16T04:53:23;-1.50;32.70
6486;DHT22;3276;48.490;9.222;2022-12-16T04:56:07;-1.50;32.80
6486;DHT22;3276;48.490;9.222;2022-12-16T04:58:52;-1.40;32.80
6486;DHT22;3276;48.490;9.222;2022-12-16T05:01:36;-1.30;32.90
6486;DHT22;3276;48.490;9.222;2022-12-16T05:04:20;-1.30;32.20
6486;DHT22;3276;48.490;9.222;2022-12-16T05:07:04;-1.30;31.60
6486;DHT22;3276;48.490;9.222;2022-12-16T05:09:48;-1.20;31.70
6486;DHT22;3276;48.490;9.222;2022-12-16T05:12:32;-1.20;30.80
6486;DHT22;3276;48.490;9.222;2022-12-16T05:15:16;-1.30;30.80
6486;DHT22;3276;48.490;9.222;2022-12-16T05:18:11;-1.40;30.30
6486;DHT22;3276;48.490;9.222;2022-12-16T05:21:00;-1.40;30.80
6486;DHT22;3276;48.490;9.222;2022-12-16T05:23:48;-1.30;30.90
6486;DHT22;3276;48.490;9.222;2022-12-16T05:26:33;-1.30;30.00
6486;DHT22;3276;48.490;9.222;2022-12-16T05:29:17;-1.20;29.50
6486;DHT22;3276;48.490;9.222;2022-12-16T05:32:01;-1.40;30.00
6486;DHT22;3276;48.490;9.222;2022-12-16T05:34:45;-1.30;31.20
6486;DHT22;3276;48.490;9.222;2022-12-16T05:37:29;-1.30;31.60
6486;DHT22;3276;48.490;9.222;2022-12-16T05:40:14;-1.30;30.00
6486;DHT22;3276;48.490;9.222;2022-12-16T05:42:58;-1.30;30.20
6486;DHT22;3276;48.490;9.222;2022-12-16T05:45:42;-1.40;30.00
6486;DHT22;3276;48.490;9.222;2022-12-16T05:48:26;-1.40;30.50
6486;DHT22;3276;48.490;9.222;2022-12-16T05:51:10;-1.40;30.20
6486;DHT22;3276;48.490;9.222;2022-12-16T05:53:55;-1.40;29.40
6486;DHT22;3276;48.490;9.222;2022-12-16T05:56:39;-1.40;29.30
6486;DHT22;3276;48.490;9.222;2022-12-16T05:59:23;-1.40;30.00
6486;DHT22;3276;48.490;9.222;2022-12-16T06:02:07;-1.40;30.00
6486;DHT22;3276;48.490;9.222;2022-12-16T06:04:52;-1.50;29.40
6486;DHT22;3276;48.490;9.222;2022-12-16T06:07:36;-1.60;30.20
6486;DHT22;3276;48.490;9.222;2022-12-16T06:10:20;-1.50;29.40
6486;DHT22;3276;48.490;9.222;2022-12-16T06:13:04;-1.50;29.70
6486;DHT22;3276;48.490;9.222;2022-12-16T06:15:48;-1.50;29.90
6486;DHT22;3276;48.490;9.222;2022-12-16T06:18:32;-1.40;30.00
6486;DHT22;3276;48.490;9.222;2022-12-16T06:21:16;-1.40;29.40
6486;DHT22;3276;48.490;9.222;2022-12-16T06:24:01;-1.40;29.70
6486;DHT22;3276;48.490;9.222;2022-12-16T06:26:45;-1.40;29.60
6486;DHT22;3276;48.490;9.222;2022-12-16T06:29:29;-1.40;30.00
6486;DHT22;3276;48.490;9.222;2022-12-16T06:32:13;-1.40;29.90
6486;DHT22;3276;48.490;9.222;2022-12-16T06:35:10;-1.40;30.20
6486;DHT22;3276;48.490;9.222;2022-12-16T06:37:55;-1.40;30.50
6486;DHT22;3276;48.490;9.222;2022-12-16T06:40:39;-1.50;30.50
6486;DHT22;3276;48.490;9.222;2022-12-16T06:43:23;-1.50;31.40
6486;DHT22;3276;48.490;9.222;2022-12-16T06:46:07;-1.50;31.30
6486;DHT22;3276;48.490;9.222;2022-12-16T06:48:51;-1.50;32.20
6486;DHT22;3276;48.490;9.222;2022-12-16T06:51:35;-1.60;30.90
6486;DHT22;3276;48.490;9.222;2022-12-16T06:54:19;-1.50;31.60
6486;DHT22;3276;48.490;9.222;2022-12-16T06:57:03;-1.60;31.80
6486;DHT22;3276;48.490;9.222;2022-12-16T06:59:47;-1.50;31.40
6486;DHT22;3276;48.490;9.222;2022-12-16T07:02:31;-1.50;30.40
6486;DHT22;3276;48.490;9.222;2022-12-16T07:05:15;-1.60;30.50
6486;DHT22;3276;48.490;9.222;2022-12-16T07:07:59;-1.50;31.00
6486;DHT22;3276;48.490;9.222;2022-12-16T07:10:43;-1.50;30.50
6486;DHT22;3276;48.490;9.222;2022-12-16T07:13:27;-1.50;30.20
6486;DHT22;3276;48.490;9.222;2022-12-16T07:16:11;-1.60;30.50
6486;DHT22;3276;48.490;9.222;2022-12-16T07:18:55;-1.60;30.20
6486;DHT22;3276;48.490;9.222;2022-12-16T07:21:39;-1.60;31.40
6486;DHT22;3276;48.490;9.222;2022-12-16T07:24:23;-1.50;31.70
6486;DHT22;3276;48.490;9.222;2022-12-16T07:27:07;-1.50;31.30
6486;DHT22;3276;48.490;9.222;2022-12-16T07:29:52;-1.40;30.60
6486;DHT22;3276;48.490;9.222;2022-12-16T07:32:36;-1.50;30.50
6486;DHT22;3276;48.490;9.222;2022-12-16T07:35:20;-1.50;30.60
6486;DHT22;3276;48.490;9.222;2022-12-16T07:38:04;-1.50;31.40
6486;DHT22;3276;48.490;9.222;2022-12-16T07:40:48;-1.40;31.00
6486;DHT22;3276;48.490;9.222;2022-12-16T07:43:32;-1.50;30.40
6486;DHT22;3276;48.490;9.222;2022-12-16T07:46:16;-1.50;29.70
6486;DHT22;3276;48.490;9.222;2022-12-16T07:49:00;-1.50;29.10
6486;DHT22;3276;48.490;9.222;2022-12-16T07:54:28;-1.50;28.80
6486;DHT22;3276;48.490;9.222;2022-12-16T07:57:12;-1.40;29.60
6486;DHT22;3276;48.490;9.222;2022-12-16T07:59:56;-1.40;28.90
6486;DHT22;3276;48.490;9.222;2022-12-16T08:02:40;-1.40;28.80
6486;DHT22;3276;48.490;9.222;2022-12-16T08:05:24;-1.60;28.70
6486;DHT22;3276;48.490;9.222;2022-12-16T08:08:09;-1.50;29.10
6486;DHT22;3276;48.490;9.222;2022-12-16T08:10:52;-1.50;28.20
6486;DHT22;3276;48.490;9.222;2022-12-16T08:13:37;-1.50;28.30
6486;DHT22;3276;48.490;9.222;2022-12-16T08:16:21;-1.50;27.90
6486;DHT22;3276;48.490;9.222;2022-12-16T08:19:05;-1.50;27.70
6486;DHT22;3276;48.490;9.222;2022-12-16T08:21:49;-1.60;27.10
6486;DHT22;3276;48.490;9.222;2022-12-16T08:24:33;-1.50;27.80
6486;DHT22;3276;48.490;9.222;2022-12-16T08:27:17;-1.40;27.10
6486;DHT22;3276;48.490;9.222;2022-12-16T08:30:01;-1.50;25.40
6486;DHT22;3276;48.490;9.222;2022-12-16T08:32:46;-1.40;25.50
6486;DHT22;3276;48.490;9.222;2022-12-16T08:35:30;-1.50;24.80
6486;DHT22;3276;48.490;9.222;2022-12-16T08:38:14;-1.30;24.40
6486;DHT22;3276;48.490;9.222;2022-12-16T08:40:58;-1.10;24.50
6486;DHT22;3276;48.490;9.222;2022-12-16T08:43:42;-1.10;23.20
6486;DHT22;3276;48.490;9.222;2022-12-16T08:46:26;-1.00;22.70
6486;DHT22;3276;48.490;9.222;2022-12-16T08:49:10;-0.80;22.90
6486;DHT22;3276;48.490;9.222;2022-12-16T08:51:54;-0.60;22.00
6486;DHT22;3276;48.490;9.222;2022-12-16T08:54:38;-0.60;21.20
6486;DHT22;3276;48.490;9.222;2022-12-16T08:57:22;-0.50;20.10
6486;DHT22;3276;48.490;9.222;2022-12-16T09:00:07;-0.40;20.10
6486;DHT22;3276;48.490;9.222;2022-12-16T09:02:55;-0.30;20.10
6486;DHT22;3276;48.490;9.222;2022-12-16T09:05:40;-0.30;19.80
6486;DHT22;3276;48.490;9.222;2022-12-16T09:08:24;-0.30;19.40
6486;DHT22;3276;48.490;9.222;2022-12-16T09:11:08;-0.30;19.00
6486;DHT22;3276;48.490;9.222;2022-12-16T09:13:52;-0.10;18.60
6486;DHT22;3276;48.490;9.222;2022-12-16T09:16:36;-0.10;18.20
6486;DHT22;3276;48.490;9.222;2022-12-16T09:19:20;0.00;17.70
6486;DHT22;3276;48.490;9.222;2022-12-16T09:22:04;0.00;17.60
6486;DHT22;3276;48.490;9.222;2022-12-16T09:24:48;0.00;17.60
6486;DHT22;3276;48.490;9.222;2022-12-16T09:27:32;0.10;17.60
6486;DHT22;3276;48.490;9.222;2022-12-16T09:30:16;0.10;17.00
6486;DHT22;3276;48.490;9.222;2022-12-16T09:33:01;0.10;18.00
6486;DHT22;3276;48.490;9.222;2022-12-16T09:35:45;0.00;18.20
6486;DHT22;3276;48.490;9.222;2022-12-16T09:38:40;-0.20;17.10
6486;DHT22;3276;48.490;9.222;2022-12-16T09:47:43;-0.40;17.90
6486;DHT22;3276;48.490;9.222;2022-12-16T09:50:35;-0.30;17.70
6486;DHT22;3276;48.490;9.222;2022-12-16T09:53:21;-0.10;16.90
6486;DHT22;3276;48.490;9.222;2022-12-16T09:56:24;-0.10;16.90
6486;DHT22;3276;48.490;9.222;2022-12-16T09:59:14;0.00;17.00
6486;DHT22;3276;48.490;9.222;2022-12-16T10:02:00;0.20;16.90
6486;DHT22;3276;48.490;9.222;2022-12-16T10:04:47;0.40;15.50
6486;DHT22;3276;48.490;9.222;2022-12-16T10:07:37;0.50;15.70
6486;DHT22;3276;48.490;9.222;2022-12-16T10:10:30;0.70;15.40
6486;DHT22;3276;48.490;9.222;2022-12-16T10:13:42;0.80;14.30
6486;DHT22;3276;48.490;9.222;2022-12-16T10:19:54;0.90;15.30
6486;DHT22;3276;48.490;9.222;2022-12-16T10:26:04;1.20;14.30
6486;DHT22;3276;48.490;9.222;2022-12-16T10:29:05;1.20;11.50
6486;DHT22;3276;48.490;9.222;2022-12-16T10:31:51;1.10;12.30
6486;DHT22;3276;48.490;9.222;2022-12-16T10:34:36;1.10;13.40
6486;DHT22;3276;48.490;9.222;2022-12-16T10:37:33;1.20;13.50
6486;DHT22;3276;48.490;9.222;2022-12-16T10:40:25;1.30;12.60
6486;DHT22;3276;48.490;9.222;2022-12-16T10:46:23;1.10;14.90
6486;DHT22;3276;48.490;9.222;2022-12-16T10:49:14;1.20;15.00
6486;DHT22;3276;48.490;9.222;2022-12-16T10:51:59;1.50;13.70
6486;DHT22;3276;48.490;9.222;2022-12-16T10:56:13;1.50;14.00
6486;DHT22;3276;48.490;9.222;2022-12-16T10:58:42;1.40;13.60
6486;DHT22;3276;48.490;9.222;2022-12-16T11:01:28;1.40;13.60
6486;DHT22;3276;48.490;9.222;2022-12-16T11:04:33;1.30;13.50
6486;DHT22;3276;48.490;9.222;2022-12-16T11:07:24;1.30;14.00
6486;DHT22;3276;48.490;9.222;2022-12-16T11:10:42;1.10;14.00
6486;DHT22;3276;48.490;9.222;2022-12-16T11:13:35;1.30;13.90
6486;DHT22;3276;48.490;9.222;2022-12-16T11:16:24;1.40;13.60
6486;DHT22;3276;48.490;9.222;2022-12-16T11:19:21;1.30;13.50
6486;DHT22;3276;48.490;9.222;2022-12-16T11:22:15;1.20;13.10
6486;DHT22;3276;48.490;9.222;2022-12-16T11:25:13;1.00;13.30
6486;DHT22;3276;48.490;9.222;2022-12-16T11:30:51;0.60;16.70
6486;DHT22;3276;48.490;9.222;2022-12-16T11:33:38;0.40;18.10
6486;DHT22;3276;48.490;9.222;2022-12-16T11:36:25;0.50;17.30
6486;DHT22;3276;48.490;9.222;2022-12-16T11:39:14;0.60;17.30
6486;DHT22;3276;48.490;9.222;2022-12-16T11:41:59;0.60;17.20
6486;DHT22;3276;48.490;9.222;2022-12-16T11:44:47;0.90;16.80
6486;DHT22;3276;48.490;9.222;2022-12-16T11:47:52;1.30;16.00
6486;DHT22;3276;48.490;9.222;2022-12-16T11:50:41;1.50;14.00
6486;DHT22;3276;48.490;9.222;2022-12-16T11:53:54;1.40;14.40
6486;DHT22;3276;48.490;9.222;2022-12-16T11:56:45;1.50;13.70
6486;DHT22;3276;48.490;9.222;2022-12-16T11:59:40;1.50;12.30
6486;DHT22;3276;48.490;9.222;2022-12-16T12:02:44;1.60;11.60
6486;DHT22;3276;48.490;9.222;2022-12-16T12:05:45;1.60;11.60
6486;DHT22;3276;48.490;9.222;2022-12-16T12:08:44;1.60;12.30
6486;DHT22;3276;48.490;9.222;2022-12-16T12:11:33;1.40;12.00
6486;DHT22;3276;48.490;9.222;2022-12-16T12:17:36;1.20;13.50
6486;DHT22;3276;48.490;9.222;2022-12-16T12:23:48;1.30;13.50
6486;DHT22;3276;48.490;9.222;2022-12-16T12:26:37;1.30;13.60
6486;DHT22;3276;48.490;9.222;2022-12-16T12:29:54;1.20;13.50
6486;DHT22;3276;48.490;9.222;2022-12-16T12:38:52;1.10;13.40
6486;DHT22;3276;48.490;9.222;2022-12-16T12:44:52;1.00;14.00
6486;DHT22;3276;48.490;9.222;2022-12-16T12:47:46;1.00;14.50
6486;DHT22;3276;48.490;9.222;2022-12-16T12:50:41;1.30;14.70
6486;DHT22;3276;48.490;9.222;2022-12-16T12:53:57;1.30;13.50
6486;DHT22;3276;48.490;9.222;2022-12-16T13:02:28;1.20;13.50
6486;DHT22;3276;48.490;9.222;2022-12-16T13:05:14;1.10;13.40
6486;DHT22;3276;48.490;9.222;2022-12-16T13:11:15;0.70;11.70
6486;DHT22;3276;48.490;9.222;2022-12-16T13:13:59;0.80;11.80
6486;DHT22;3276;48.490;9.222;2022-12-16T13:25:36;0.50;12.10
6486;DHT22;3276;48.490;9.222;2022-12-16T13:28:23;0.40;13.00
6486;DHT22;3276;48.490;9.222;2022-12-16T13:31:08;0.50;13.10
6486;DHT22;3276;48.490;9.222;2022-12-16T13:34:20;0.70;13.20
6486;DHT22;3276;48.490;9.222;2022-12-16T13:37:16;0.60;12.40
6486;DHT22;3276;48.490;9.222;2022-12-16T13:40:16;0.60;11.70
6486;DHT22;3276;48.490;9.222;2022-12-16T13:43:01;0.40;12.60
6486;DHT22;3276;48.490;9.222;2022-12-16T13:48:49;0.60;11.60
6486;DHT22;3276;48.490;9.222;2022-12-16T13:54:30;0.70;12.30
6486;DHT22;3276;48.490;9.222;2022-12-16T13:57:18;0.70;12.30
6486;DHT22;3276;48.490;9.222;2022-12-16T14:00:05;0.80;12.20
6486;DHT22;3276;48.490;9.222;2022-12-16T14:02:59;0.90;11.90
6486;DHT22;3276;48.490;9.222;2022-12-16T14:05:45;0.80;11.90
6486;DHT22;3276;48.490;9.222;2022-12-16T14:08:32;0.80;11.90
6486;DHT22;3276;48.490;9.222;2022-12-16T14:17:16;0.60;12.30
6486;DHT22;3276;48.490;9.222;2022-12-16T14:20:14;0.50;12.50
6486;DHT22;3276;48.490;9.222;2022-12-16T14:26:11;0.40;12.50
6486;DHT22;3276;48.490;9.222;2022-12-16T14:28:56;0.40;13.00
6486;DHT22;3276;48.490;9.222;2022-12-16T14:31:43;0.50;13.10
6486;DHT22;3276;48.490;9.222;2022-12-16T14:34:30;0.40;13.00
6486;DHT22;3276;48.490;9.222;2022-12-16T14:37:20;0.30;13.60
6486;DHT22;3276;48.490;9.222;2022-12-16T14:43:01;0.20;14.20
6486;DHT22;3276;48.490;9.222;2022-12-16T14:45:50;0.20;14.80
6486;DHT22;3276;48.490;9.222;2022-12-16T14:48:37;0.00;14.60
6486;DHT22;3276;48.490;9.222;2022-12-16T14:51:29;-0.20;14.60
6486;DHT22;3276;48.490;9.222;2022-12-16T14:57:34;0.00;15.00
6486;DHT22;3276;48.490;9.222;2022-12-16T15:00:21;-0.20;15.60
6486;DHT22;3276;48.490;9.222;2022-12-16T15:03:19;-0.20;16.20
6486;DHT22;3276;48.490;9.222;2022-12-16T15:06:31;-0.40;15.90
6486;DHT22;3276;48.490;9.222;2022-12-16T15:09:23;-0.40;15.70
6486;DHT22;3276;48.490;9.222;2022-12-16T15:12:09;-0.50;15.60
6486;DHT22;3276;48.490;9.222;2022-12-16T15:14:56;-0.50;15.20
6486;DHT22;3276;48.490;9.222;2022-12-16T15:17:46;-0.60;15.30
6486;DHT22;3276;48.490;9.222;2022-12-16T15:20:33;-0.60;15.40
6486;DHT22;3276;48.490;9.222;2022-12-16T15:23:29;-0.70;15.50
6486;DHT22;3276;48.490;9.222;2022-12-16T15:26:25;-0.70;16.40
6486;DHT22;3276;48.490;9.222;2022-12-16T15:29:46;-0.80;16.40
6486;DHT22;3276;48.490;9.222;2022-12-16T15:32:34;-0.70;17.70
6486;DHT22;3276;48.490;9.222;2022-12-16T15:41:22;-1.10;17.00
6486;DHT22;3276;48.490;9.222;2022-12-16T15:44:17;-1.20;16.20
6486;DHT22;3276;48.490;9.222;2022-12-16T15:47:02;-1.20;16.20
6486;DHT22;3276;48.490;9.222;2022-12-16T15:49:47;-1.10;17.00
6486;DHT22;3276;48.490;9.222;2022-12-16T15:52:43;-1.10;16.20
6486;DHT22;3276;48.490;9.222;2022-12-16T15:55:38;-1.10;15.50
6486;DHT22;3276;48.490;9.222;2022-12-16T15:58:33;-1.20;15.90
6486;DHT22;3276;48.490;9.222;2022-12-16T16:01:23;-1.10;16.10
6486;DHT22;3276;48.490;9.222;2022-12-16T16:04:21;-1.10;16.20
6486;DHT22;3276;48.490;9.222;2022-12-16T16:07:23;-1.20;16.20
6486;DHT22;3276;48.490;9.222;2022-12-16T16:10:19;-1.20;16.20
6486;DHT22;3276;48.490;9.222;2022-12-16T16:13:05;-1.20;16.20
6486;DHT22;3276;48.490;9.222;2022-12-16T16:15:49;-1.10;16.10
6486;DHT22;3276;48.490;9.222;2022-12-16T16:18:34;-1.10;15.80
6486;DHT22;3276;48.490;9.222;2022-12-16T16:21:19;-1.10;15.90
6486;DHT22;3276;48.490;9.222;2022-12-16T16:24:03;-1.10;15.60
6486;DHT22;3276;48.490;9.222;2022-12-16T16:26:48;-1.00;15.50
6486;DHT22;3276;48.490;9.222;2022-12-16T16:29:32;-1.10;15.30
6486;DHT22;3276;48.490;9.222;2022-12-16T16:32:16;-1.10;15.00
6486;DHT22;3276;48.490;9.222;2022-12-16T16:35:00;-1.10;15.10
6486;DHT22;3276;48.490;9.222;2022-12-16T16:37:44;-1.20;15.10
6486;DHT22;3276;48.490;9.222;2022-12-16T16:43:12;-1.10;15.40
6486;DHT22;3276;48.490;9.222;2022-12-16T16:45:56;-1.00;15.20
6486;DHT22;3276;48.490;9.222;2022-12-16T16:48:40;-1.00;14.90
6486;DHT22;3276;48.490;9.222;2022-12-16T16:51:25;-1.00;14.90
6486;DHT22;3276;48.490;9.222;2022-12-16T16:54:10;-1.00;15.20
6486;DHT22;3276;48.490;9.222;2022-12-16T16:56:54;-1.10;14.90
6486;DHT22;3276;48.490;9.222;2022-12-16T16:59:38;-1.30;15.50
6486;DHT22;3276;48.490;9.222;2022-12-16T17:02:23;-1.20;16.20
6486;DHT22;3276;48.490;9.222;2022-12-16T17:05:10;-1.10;16.00
6486;DHT22;3276;48.490;9.222;2022-12-16T17:07:55;-1.00;15.90
6486;DHT22;3276;48.490;9.222;2022-12-16T17:10:39;-1.00;15.90
6486;DHT22;3276;48.490;9.222;2022-12-16T17:13:23;-1.10;16.60
6486;DHT22;3276;48.490;9.222;2022-12-16T17:16:11;-1.20;16.50
6486;DHT22;3276;48.490;9.222;2022-12-16T17:18:56;-1.20;16.20
6486;DHT22;3276;48.490;9.222;2022-12-16T17:21:40;-1.10;15.70
6486;DHT22;3276;48.490;9.222;2022-12-16T17:24:24;-1.10;15.70
6486;DHT22;3276;48.490;9.222;2022-12-16T17:27:16;-1.00;15.10
6486;DHT22;3276;48.490;9.222;2022-12-16T17:30:02;-1.10;15.20
6486;DHT22;3276;48.490;9.222;2022-12-16T17:32:46;-1.00;15.20
6486;DHT22;3276;48.490;9.222;2022-12-16T17:35:30;-1.00;15.50
6486;DHT22;3276;48.490;9.222;2022-12-16T17:38:14;-0.90;16.00
6486;DHT22;3276;48.490;9.222;2022-12-16T17:40:59;-0.90;15.50
6486;DHT22;3276;48.490;9.222;2022-12-16T17:43:43;-0.90;15.00
6486;DHT22;3276;48.490;9.222;2022-12-16T17:46:27;-0.90;15.90
6486;DHT22;3276;48.490;9.222;2022-12-16T17:49:11;-1.00;15.40
6486;DHT22;3276;48.490;9.222;2022-12-16T17:51:55;-1.00;15.70
6486;DHT22;3276;48.490;9.222;2022-12-16T17:54:39;-1.00;15.80
6486;DHT22;3276;48.490;9.222;2022-12-16T17:57:24;-1.00;16.60
6486;DHT22;3276;48.490;9.222;2022-12-16T18:00:08;-1.00;15.80
6486;DHT22;3276;48.490;9.222;2022-12-16T18:02:52;-1.10;16.20
6486;DHT22;3276;48.490;9.222;2022-12-16T18:05:36;-1.10;16.20
6486;DHT22;3276;48.490;9.222;2022-12-16T18:08:20;-1.00;16.30
6486;DHT22;3276;48.490;9.222;2022-12-16T18:11:04;-1.10;16.70
6486;DHT22;3276;48.490;9.222;2022-12-16T18:13:48;-1.10;17.30
6486;DHT22;3276;48.490;9.222;2022-12-16T18:16:32;-1.10;17.20
6486;DHT22;3276;48.490;9.222;2022-12-16T18:19:17;-1.20;17.20
6486;DHT22;3276;48.490;9.222;2022-12-16T18:22:01;-1.20;17.40
6486;DHT22;3276;48.490;9.222;2022-12-16T18:24:46;-1.20;17.80
6486;DHT22;3276;48.490;9.222;2022-12-16T18:27:30;-1.20;18.20
6486;DHT22;3276;48.490;9.222;2022-12-16T18:30:14;-1.20;18.70
6486;DHT22;3276;48.490;9.222;2022-12-16T18:32:59;-1.20;18.80
6486;DHT22;3276;48.490;9.222;2022-12-16T18:35:43;-1.20;19.10
6486;DHT22;3276;48.490;9.222;2022-12-16T18:38:27;-1.20;19.10
6486;DHT22;3276;48.490;9.222;2022-12-16T18:41:19;-1.20;19.10
6486;DHT22;3276;48.490;9.222;2022-12-16T18:44:11;-1.20;18.80
6486;DHT22;3276;48.490;9.222;2022-12-16T18:46:55;-1.20;18.70
6486;DHT22;3276;48.490;9.222;2022-12-16T18:49:40;-1.20;18.80
6486;DHT22;3276;48.490;9.222;2022-12-16T18:52:24;-1.10;18.60
6486;DHT22;3276;48.490;9.222;2022-12-16T18:55:08;-1.10;18.40
6486;DHT22;3276;48.490;9.222;2022-12-16T18:57:52;-1.10;18.50
6486;DHT22;3276;48.490;9.222;2022-12-16T19:00:36;-1.20;19.20
6486;DHT22;3276;48.490;9.222;2022-12-16T19:03:37;-1.30;19.60
6486;DHT22;3276;48.490;9.222;2022-12-16T19:06:21;-1.20;20.30
6486;DHT22;3276;48.490;9.222;2022-12-16T19:09:05;-1.20;20.30
6486;DHT22;3276;48.490;9.222;2022-12-16T19:11:49;-1.20;20.30
6486;DHT22;3276;48.490;9.222;2022-12-16T19:14:34;-1.20;20.30
6486;DHT22;3276;48.490;9.222;2022-12-16T19:17:18;-1.30;19.50
6486;DHT22;3276;48.490;9.222;2022-12-16T19:20:02;-1.40;20.10
6486;DHT22;3276;48.490;9.222;2022-12-16T19:22:46;-1.50;20.20
6486;DHT22;3276;48.490;9.222;2022-12-16T19:25:30;-1.50;19.80
6486;DHT22;3276;48.490;9.222;2022-12-16T19:28:15;-1.50;20.10
6486;DHT22;3276;48.490;9.222;2022-12-16T19:30:59;-1.50;20.10
6486;DHT22;3276;48.490;9.222;2022-12-16T19:33:43;-1.50;20.10
6486;DHT22;3276;48.490;9.222;2022-12-16T19:36:27;-1.60;20.70
6486;DHT22;3276;48.490;9.222;2022-12-16T19:39:12;-1.60;20.90